createdAt,value
2018-09-13T00:02:22.905Z,40.03
2018-09-13T00:04:55.764Z,44.53
2018-09-13T00:07:28.304Z,46.23
2018-09-13T00:10:02.400Z,45.27
2018-09-13T00:12:34.894Z,48.47
2018-09-13T00:15:07.845Z,47.30
2018-09-13T00:17:40.363Z,46.83
2018-09-13T00:20:12.990Z,44.87
2018-09-13T00:22:45.901Z,46.30
2018-09-13T00:25:19.340Z,48.70
2018-09-13T00:27:51.861Z,47.80
2018-09-13T00:30:24.892Z,56.60
2018-09-13T00:32:57.387Z,53.20
2018-09-13T00:35:30.188Z,56.77
2018-09-13T00:38:03.224Z,56.63
2018-09-13T00:40:35.813Z,59.13
2018-09-13T00:43:08.308Z,53.43
2018-09-13T00:45:41.131Z,54.37
2018-09-13T00:48:13.733Z,56.10
2018-09-13T00:50:46.338Z,60.70
2018-09-13T00:53:19.491Z,57.53
2018-09-13T00:55:52.111Z,51.23
2018-09-13T00:58:24.709Z,54.10
2018-09-13T01:01:00.251Z,55.13
2018-09-13T01:03:32.868Z,49.57
2018-09-13T01:06:05.590Z,45.53
2018-09-13T01:08:39.637Z,48.20
2018-09-13T01:11:12.292Z,48.53
2018-09-13T01:13:44.836Z,51.05
2018-09-13T01:16:17.836Z,42.57
2018-09-13T01:18:51.668Z,42.27
2018-09-13T01:21:26.772Z,38.00
2018-09-13T01:24:00.856Z,38.73
2018-09-13T01:26:33.464Z,38.07
2018-09-13T01:29:06.072Z,37.40
2018-09-13T01:31:40.033Z,37.83
2018-09-13T01:34:13.501Z,34.93
2018-09-13T01:36:46.264Z,42.15
2018-09-13T01:39:19.196Z,38.07
2018-09-13T01:41:51.840Z,35.60
2018-09-13T01:44:24.380Z,39.87
2018-09-13T01:46:57.572Z,35.03
2018-09-13T01:49:30.160Z,34.80
2018-09-13T01:52:03.614Z,36.23
2018-09-13T01:54:37.262Z,35.67
2018-09-13T01:57:09.844Z,33.70
2018-09-13T01:59:42.739Z,34.97
2018-09-13T02:02:15.690Z,34.30
2018-09-13T02:04:48.289Z,34.77
2018-09-13T02:07:22.904Z,30.97
2018-09-13T02:09:56.751Z,29.27
2018-09-13T02:12:29.249Z,29.40
2018-09-13T02:15:03.465Z,28.08
2018-09-13T02:17:36.450Z,28.40
2018-09-13T02:20:09.216Z,25.23
2018-09-13T02:22:41.817Z,28.50
2018-09-13T02:25:14.781Z,24.60
2018-09-13T02:27:47.355Z,29.60
2018-09-13T02:30:19.857Z,26.83
2018-09-13T02:32:52.831Z,28.77
2018-09-13T02:35:25.473Z,27.50
2018-09-13T02:37:57.988Z,24.13
2018-09-13T02:40:30.818Z,29.33
2018-09-13T02:43:03.372Z,27.57
2018-09-13T02:45:35.956Z,30.00
2018-09-13T02:48:08.847Z,29.47
2018-09-13T02:50:41.261Z,32.07
2018-09-13T02:53:13.813Z,27.73
2018-09-13T02:55:46.644Z,28.73
2018-09-13T02:58:19.299Z,31.07
2018-09-13T03:00:51.617Z,31.13
2018-09-13T03:03:24.480Z,29.67
2018-09-13T03:05:57.112Z,30.63
2018-09-13T03:08:29.692Z,28.23
2018-09-13T03:11:02.885Z,28.60
2018-09-13T03:13:35.296Z,32.53
2018-09-13T03:16:08.320Z,28.83
2018-09-13T03:18:43.066Z,31.13
2018-09-13T03:21:15.376Z,32.33
2018-09-13T03:23:48.568Z,40.65
2018-09-13T03:26:23.288Z,31.17
2018-09-13T03:28:56.650Z,28.10
2018-09-13T03:31:29.020Z,26.50
2018-09-13T03:34:02.232Z,26.13
2018-09-13T03:36:35.104Z,25.67
2018-09-13T03:39:10.683Z,24.73
2018-09-13T03:41:43.301Z,23.70
2018-09-13T03:44:15.650Z,25.17
2018-09-13T03:46:47.996Z,22.00
2018-09-13T03:49:20.612Z,24.90
2018-09-13T03:51:52.972Z,22.87
2018-09-13T03:54:25.312Z,25.60
2018-09-13T03:56:58.148Z,25.23
2018-09-13T03:59:30.868Z,26.63
2018-09-13T04:02:03.264Z,26.50
2018-09-13T04:04:35.640Z,27.47
2018-09-13T04:07:13.748Z,27.47
2018-09-13T04:09:46.173Z,26.60
2018-09-13T04:12:18.530Z,25.63
2018-09-13T04:14:51.327Z,26.07
2018-09-13T04:17:23.708Z,25.70
2018-09-13T04:19:56.087Z,24.03
2018-09-13T04:22:29.945Z,23.63
2018-09-13T04:25:03.528Z,23.47
2018-09-13T04:27:35.915Z,23.63
2018-09-13T04:30:08.689Z,26.60
2018-09-13T04:32:41.589Z,26.23
2018-09-13T04:35:14.942Z,25.37
2018-09-13T04:37:47.612Z,25.10
2018-09-13T04:40:19.994Z,26.37
2018-09-13T04:42:53.820Z,26.07
2018-09-13T04:45:26.378Z,30.03
2018-09-13T04:47:58.947Z,27.70
2018-09-13T04:50:31.712Z,29.30
2018-09-13T04:53:04.167Z,27.47
2018-09-13T04:55:36.564Z,27.50
2018-09-13T04:58:09.274Z,31.00
2018-09-13T05:00:42.424Z,32.20
2018-09-13T05:03:15.961Z,33.67
2018-09-13T05:05:50.084Z,40.67
2018-09-13T05:08:23.134Z,35.40
2018-09-13T05:10:55.576Z,41.30
2018-09-13T05:13:28.388Z,43.73
2018-09-13T05:16:00.770Z,43.33
2018-09-13T05:18:34.017Z,43.50
2018-09-13T05:21:06.777Z,43.73
2018-09-13T05:23:39.881Z,41.63
2018-09-13T05:26:12.233Z,39.27
2018-09-13T05:28:45.919Z,42.03
2018-09-13T05:31:18.837Z,38.70
2018-09-13T05:33:51.236Z,37.67
2018-09-13T05:36:23.687Z,42.10
2018-09-13T05:38:56.047Z,42.37
2018-09-13T05:41:28.407Z,45.77
2018-09-13T05:44:01.216Z,46.30
2018-09-13T05:46:35.597Z,47.20
2018-09-13T05:49:09.845Z,42.20
2018-09-13T05:51:44.611Z,49.40
2018-09-13T05:54:17.763Z,45.57
2018-09-13T05:56:50.507Z,47.83
2018-09-13T05:59:22.840Z,55.30
2018-09-13T06:01:56.630Z,55.27
2018-09-13T06:04:30.151Z,51.87
2018-09-13T06:07:04.841Z,54.77
2018-09-13T06:09:37.132Z,58.60
2018-09-13T06:12:09.509Z,61.73
2018-09-13T06:14:43.443Z,60.53
2018-09-13T06:17:16.653Z,59.13
2018-09-13T06:19:50.441Z,58.20
2018-09-13T06:22:24.276Z,58.50
2018-09-13T06:24:57.062Z,63.40
2018-09-13T06:27:29.579Z,58.10
2018-09-13T06:30:03.315Z,55.17
2018-09-13T06:32:36.045Z,51.33
2018-09-13T06:35:09.314Z,42.13
2018-09-13T06:37:42.507Z,46.92
2018-09-13T06:40:17.572Z,42.70
2018-09-13T06:42:49.975Z,42.70
2018-09-13T06:45:23.373Z,37.23
2018-09-13T06:47:56.314Z,35.33
2018-09-13T06:50:28.693Z,37.13
2018-09-13T06:53:01.136Z,37.17
2018-09-13T06:55:33.768Z,34.40
2018-09-13T06:58:06.159Z,33.10
2018-09-13T07:00:38.625Z,27.47
2018-09-13T07:03:15.538Z,24.73
2018-09-13T07:05:50.028Z,22.03
2018-09-13T07:08:23.220Z,23.93
2018-09-13T07:10:56.120Z,23.30
2018-09-13T07:13:28.594Z,19.67
2018-09-13T07:16:01.049Z,19.90
2018-09-13T07:18:34.943Z,20.40
2018-09-13T07:21:07.921Z,17.67
2018-09-13T07:23:40.494Z,19.58
2018-09-13T07:26:13.267Z,16.90
2018-09-13T07:28:45.767Z,17.93
2018-09-13T07:31:18.071Z,15.10
2018-09-13T07:33:50.925Z,17.67
2018-09-13T07:36:23.297Z,15.83
2018-09-13T07:38:58.632Z,17.60
2018-09-13T07:41:32.758Z,14.60
2018-09-13T07:44:07.535Z,13.17
2018-09-13T07:46:41.038Z,14.30
2018-09-13T07:49:15.212Z,17.27
2018-09-13T07:51:47.397Z,16.80
2018-09-13T07:54:19.833Z,15.77
2018-09-13T07:56:53.881Z,16.27
2018-09-13T07:59:26.768Z,16.83
2018-09-13T08:02:00.547Z,15.80
2018-09-13T08:04:33.544Z,18.17
2018-09-13T08:07:06.308Z,18.37
2018-09-13T08:09:38.749Z,18.47
2018-09-13T08:12:12.667Z,19.13
2018-09-13T08:14:53.656Z,19.87
2018-09-13T08:17:30.395Z,17.37
2018-09-13T08:20:05.340Z,16.70
2018-09-13T08:22:40.641Z,21.17
2018-09-13T08:25:15.148Z,19.67
2018-09-13T08:27:48.943Z,18.17
2018-09-13T08:30:22.723Z,19.97
2018-09-13T08:32:55.659Z,17.53
2018-09-13T08:35:28.688Z,18.33
2018-09-13T08:38:01.252Z,17.13
2018-09-13T08:40:33.729Z,18.23
2018-09-13T08:43:08.615Z,18.33
2018-09-13T08:45:42.761Z,18.87
2018-09-13T08:48:16.766Z,19.93
2018-09-13T08:50:54.309Z,18.90
2018-09-13T08:53:28.048Z,17.87
2018-09-13T08:56:02.280Z,18.45
2018-09-13T08:58:34.603Z,18.80
2018-09-13T09:01:16.009Z,20.37
2018-09-13T09:03:48.323Z,20.73
2018-09-13T09:06:20.740Z,18.00
2018-09-13T09:08:53.964Z,21.47
2018-09-13T09:11:28.420Z,20.00
2018-09-13T09:14:01.758Z,24.53
2018-09-13T09:16:35.809Z,23.27
2018-09-13T09:19:08.803Z,26.23
2018-09-13T09:21:42.097Z,24.53
2018-09-13T09:24:16.466Z,24.73
2018-09-13T09:26:48.879Z,24.83
2018-09-13T09:29:23.207Z,24.37
2018-09-13T09:31:57.992Z,25.37
2018-09-13T09:34:30.281Z,24.10
2018-09-13T09:37:02.757Z,25.70
2018-09-13T09:39:35.557Z,27.57
2018-09-13T09:42:10.456Z,29.33
2018-09-13T09:44:43.339Z,28.37
2018-09-13T09:47:16.162Z,26.87
2018-09-13T09:49:49.808Z,26.50
2018-09-13T09:52:24.435Z,26.73
2018-09-13T09:54:58.186Z,28.05
2018-09-13T09:57:30.632Z,25.10
2018-09-13T10:00:06.150Z,24.07
2018-09-13T10:02:39.760Z,22.33
2018-09-13T10:05:12.044Z,24.17
2018-09-13T10:07:44.416Z,22.13
2018-09-13T10:10:17.115Z,21.03
2018-09-13T10:12:49.532Z,22.93
2018-09-13T10:15:27.888Z,25.20
2018-09-13T10:18:05.770Z,25.57
2018-09-13T10:20:44.100Z,28.20
2018-09-13T10:23:21.863Z,28.15
2018-09-13T10:26:00.115Z,26.27
2018-09-13T10:28:37.987Z,27.30
2018-09-13T10:31:15.921Z,25.53
2018-09-13T10:33:54.042Z,26.10
2018-09-13T10:36:32.597Z,27.33
2018-09-13T10:39:14.365Z,25.80
2018-09-13T10:41:52.440Z,26.63
2018-09-13T10:44:30.513Z,29.27
2018-09-13T10:47:09.156Z,25.17
2018-09-13T10:49:47.028Z,26.83
2018-09-13T10:52:24.664Z,29.00
2018-09-13T10:54:58.138Z,32.13
2018-09-13T10:57:35.927Z,30.03
2018-09-13T11:00:07.597Z,32.57
2018-09-13T11:02:40.073Z,26.90
2018-09-13T11:05:12.940Z,28.13
2018-09-13T11:07:45.265Z,27.77
2018-09-13T11:10:17.789Z,32.47
2018-09-13T11:13:09.776Z,30.27
2018-09-13T11:15:54.328Z,29.15
2018-09-13T11:18:27.339Z,26.80
2018-09-13T11:21:00.544Z,24.83
2018-09-13T11:23:34.188Z,26.37
2018-09-13T11:26:07.580Z,28.30
2018-09-13T11:28:40.207Z,24.03
2018-09-13T11:31:12.892Z,23.30
2018-09-13T11:33:46.182Z,24.53
2018-09-13T11:36:23.421Z,21.27
2018-09-13T11:38:55.983Z,21.63
2018-09-13T11:41:29.601Z,17.87
2018-09-13T11:44:02.792Z,18.50
2018-09-13T11:46:37.406Z,17.47
2018-09-13T11:49:10.328Z,21.48
2018-09-13T11:51:42.951Z,20.23
2018-09-13T11:54:16.348Z,17.97
2018-09-13T11:56:50.520Z,16.93
2018-09-13T11:59:23.140Z,16.70
2018-09-13T12:01:55.717Z,17.60
2018-09-13T12:04:28.538Z,16.07
2018-09-13T12:07:01.338Z,14.70
2018-09-13T12:09:33.907Z,13.97
2018-09-13T12:12:06.531Z,14.50
2018-09-13T12:14:39.171Z,15.73
2018-09-13T12:17:11.855Z,15.90
2018-09-13T12:19:44.401Z,14.20
2018-09-13T12:22:17.510Z,15.83
2018-09-13T12:24:49.865Z,13.93
2018-09-13T12:27:22.604Z,12.57
2018-09-13T12:29:56.606Z,12.10
2018-09-13T12:32:29.293Z,11.60
2018-09-13T12:35:01.964Z,12.77
2018-09-13T12:37:35.271Z,11.10
2018-09-13T12:40:09.264Z,11.33
2018-09-13T12:42:42.244Z,9.43
2018-09-13T12:45:16.019Z,9.67
2018-09-13T12:47:48.820Z,9.83
2018-09-13T12:50:22.897Z,10.70
2018-09-13T12:52:55.708Z,9.97
2018-09-13T12:55:36.334Z,11.67
2018-09-13T12:58:09.000Z,11.77
2018-09-13T13:00:42.120Z,11.00
2018-09-13T13:03:16.888Z,11.47
2018-09-13T13:05:50.376Z,10.80
2018-09-13T13:08:24.487Z,10.10
2018-09-13T13:10:57.161Z,10.43
2018-09-13T13:13:30.026Z,9.10
2018-09-13T13:16:05.882Z,9.67
2018-09-13T13:18:40.445Z,9.70
2018-09-13T13:21:13.017Z,10.83
2018-09-13T13:23:48.238Z,11.10
2018-09-13T13:26:20.785Z,10.50
2018-09-13T13:28:53.632Z,10.90
2018-09-13T13:31:27.537Z,10.47
2018-09-13T13:34:00.157Z,9.50
2018-09-13T13:36:33.336Z,8.67
2018-09-13T13:39:10.212Z,7.83
2018-09-13T13:41:43.266Z,6.93
2018-09-13T13:44:16.293Z,7.17
2018-09-13T13:46:50.408Z,6.00
2018-09-13T13:49:23.051Z,8.13
2018-09-13T13:51:55.960Z,7.13
2018-09-13T13:54:28.560Z,7.83
2018-09-13T13:57:01.179Z,7.30
2018-09-13T13:59:34.983Z,7.00
2018-09-13T14:02:08.281Z,8.63
2018-09-13T14:04:41.092Z,6.97
2018-09-13T14:07:14.642Z,6.97
2018-09-13T14:09:47.409Z,5.60
2018-09-13T14:12:20.019Z,5.40
2018-09-13T14:14:53.224Z,6.93
2018-09-13T14:17:25.944Z,6.77
2018-09-13T14:19:58.658Z,6.80
2018-09-13T14:22:37.198Z,6.43
2018-09-13T14:25:12.322Z,7.63
2018-09-13T14:27:46.381Z,7.23
2018-09-13T14:30:19.063Z,7.00
2018-09-13T14:32:51.543Z,7.87
2018-09-13T14:35:24.589Z,8.67
2018-09-13T14:37:57.142Z,7.97
2018-09-13T14:40:30.595Z,8.07
2018-09-13T14:43:03.524Z,8.83
2018-09-13T14:45:36.548Z,7.87
2018-09-13T14:48:09.219Z,7.67
2018-09-13T14:50:41.899Z,6.77
2018-09-13T14:53:14.528Z,7.13
2018-09-13T14:55:49.113Z,6.40
2018-09-13T14:58:21.853Z,6.10
2018-09-13T15:00:54.421Z,7.27
2018-09-13T15:03:27.244Z,6.10
2018-09-13T15:05:59.988Z,6.73
2018-09-13T15:08:32.634Z,7.83
2018-09-13T15:11:05.644Z,7.53
2018-09-13T15:13:38.353Z,7.07
2018-09-13T15:16:11.349Z,7.83
2018-09-13T15:18:44.768Z,8.00
2018-09-13T15:21:17.475Z,9.00
2018-09-13T15:23:50.056Z,8.00
2018-09-13T15:26:22.736Z,8.87
2018-09-13T15:28:55.267Z,9.03
2018-09-13T15:31:28.243Z,8.37
2018-09-13T15:34:00.994Z,10.60
2018-09-13T15:36:33.689Z,10.20
2018-09-13T15:39:12.190Z,9.07
2018-09-13T15:41:44.873Z,9.30
2018-09-13T15:44:17.877Z,9.43
2018-09-13T15:46:52.516Z,10.38
2018-09-13T15:49:25.076Z,9.90
2018-09-13T15:51:57.702Z,8.87
2018-09-13T15:54:31.188Z,7.77
2018-09-13T15:57:03.836Z,8.87
2018-09-13T15:59:36.675Z,9.15
2018-09-13T16:02:11.907Z,10.30
2018-09-13T16:04:44.301Z,11.47
2018-09-13T16:07:17.267Z,10.03
2018-09-13T16:09:50.488Z,8.93
2018-09-13T16:12:23.779Z,10.53
2018-09-13T16:14:56.565Z,8.03
2018-09-13T16:17:32.073Z,9.53
2018-09-13T16:20:04.934Z,9.40
2018-09-13T16:22:37.520Z,8.57
2018-09-13T16:25:12.972Z,10.10
2018-09-13T16:27:45.613Z,8.77
2018-09-13T16:30:18.070Z,8.50
2018-09-13T16:32:51.549Z,10.10
2018-09-13T16:35:25.296Z,8.83
2018-09-13T16:38:03.650Z,8.17
2018-09-13T16:40:45.068Z,7.27
2018-09-13T16:43:37.452Z,8.17
2018-09-13T16:46:18.067Z,9.40
2018-09-13T16:48:50.723Z,9.10
2018-09-13T16:51:23.713Z,7.83
2018-09-13T16:53:57.013Z,7.87
2018-09-13T16:56:29.736Z,8.27
2018-09-13T16:59:02.832Z,7.23
2018-09-13T17:01:35.435Z,8.07
2018-09-13T17:04:09.321Z,8.00
2018-09-13T17:06:42.629Z,7.83
2018-09-13T17:09:15.446Z,8.80
2018-09-13T17:11:48.469Z,8.17
2018-09-13T17:14:22.570Z,11.73
2018-09-13T17:16:55.303Z,8.63
2018-09-13T17:19:46.336Z,9.53
2018-09-13T17:22:20.649Z,9.57
2018-09-13T17:27:27.722Z,9.40
2018-09-13T17:30:03.006Z,8.37
2018-09-13T17:32:35.903Z,9.45
2018-09-13T17:35:09.166Z,9.50
2018-09-13T17:37:41.888Z,10.63
2018-09-13T17:40:14.932Z,11.60
2018-09-13T17:42:48.724Z,10.07
2018-09-13T17:45:22.992Z,8.60
2018-09-13T17:47:55.880Z,9.05
2018-09-13T17:50:28.898Z,8.67
2018-09-13T17:53:01.847Z,9.65
2018-09-13T17:55:35.782Z,9.03
2018-09-13T17:58:11.931Z,8.00
2018-09-13T18:00:45.080Z,9.43
2018-09-13T18:03:19.157Z,7.87
2018-09-13T18:05:52.275Z,9.13
2018-09-13T18:08:24.923Z,10.40
2018-09-13T18:10:58.278Z,9.63
2018-09-13T18:13:30.911Z,8.97
2018-09-13T18:16:03.645Z,10.77
2018-09-13T18:18:36.879Z,10.80
2018-09-13T18:21:09.827Z,10.53
2018-09-13T18:23:43.392Z,12.53
2018-09-13T18:26:16.182Z,11.53
2018-09-13T18:28:48.769Z,9.43
2018-09-13T18:31:23.037Z,14.27
2018-09-13T18:33:56.184Z,11.70
2018-09-13T18:36:29.833Z,13.20
2018-09-13T18:39:04.022Z,14.48
2018-09-13T18:41:40.022Z,12.87
2018-09-13T18:44:12.692Z,15.93
2018-09-13T18:46:47.685Z,14.80
2018-09-13T18:49:24.730Z,13.70
2018-09-13T18:51:59.889Z,16.55
2018-09-13T18:54:34.549Z,11.67
2018-09-13T18:57:08.577Z,14.80
2018-09-13T18:59:43.275Z,12.77
2018-09-13T19:02:20.063Z,14.38
2018-09-13T19:04:56.729Z,15.00
2018-09-13T19:07:30.872Z,15.00
2018-09-13T19:10:04.028Z,14.60
2018-09-13T19:12:38.604Z,16.03
2018-09-13T19:15:21.297Z,12.50
2018-09-13T19:17:56.136Z,14.50
2018-09-13T19:20:29.112Z,14.10
2018-09-13T19:23:01.819Z,14.73
2018-09-13T19:25:35.276Z,13.53
2018-09-13T19:28:12.290Z,14.73
2018-09-13T19:30:45.318Z,15.47
2018-09-13T19:33:17.936Z,15.03
2018-09-13T19:35:52.961Z,16.03
2018-09-13T19:38:27.290Z,20.27
2018-09-13T19:41:00.486Z,18.30
2018-09-13T19:43:36.376Z,15.37
2018-09-13T19:46:11.006Z,21.23
2018-09-13T19:48:48.284Z,18.40
2018-09-13T19:51:20.898Z,22.00
2018-09-13T19:53:57.366Z,19.80
2018-09-13T19:56:30.574Z,18.17
2018-09-13T19:59:05.519Z,20.87
2018-09-13T20:01:39.645Z,19.67
2018-09-13T20:04:14.363Z,20.13
2018-09-13T20:06:47.185Z,22.20
2018-09-13T20:09:21.710Z,20.73
2018-09-13T20:11:55.010Z,30.10
2018-09-13T20:14:29.034Z,28.83
2018-09-13T20:17:02.149Z,30.73
2018-09-13T20:19:34.824Z,25.70
2018-09-13T20:22:11.004Z,20.90
2018-09-13T20:24:47.980Z,24.02
2018-09-13T20:27:22.764Z,21.10
2018-09-13T20:30:00.725Z,20.53
2018-09-13T20:32:37.963Z,22.57
2018-09-13T20:35:13.679Z,21.37
2018-09-13T20:37:48.736Z,25.73
2018-09-13T20:40:26.352Z,29.27
2018-09-13T20:42:58.955Z,30.13
2018-09-13T20:45:32.090Z,22.63
2018-09-13T20:48:07.029Z,21.23
2018-09-13T20:50:39.663Z,25.73
2018-09-13T20:53:15.494Z,25.67
2018-09-13T20:55:48.011Z,22.23
2018-09-13T20:58:21.432Z,21.13
2018-09-13T21:00:55.473Z,20.37
2018-09-13T21:03:30.836Z,20.40
2018-09-13T21:06:05.966Z,25.73
2018-09-13T21:08:39.129Z,24.37
2018-09-13T21:11:13.954Z,28.87
2018-09-13T21:13:48.040Z,27.90
2018-09-13T21:16:22.262Z,23.23
2018-09-13T21:18:55.664Z,27.08
2018-09-13T21:21:29.787Z,32.07
2018-09-13T21:24:03.661Z,26.47
2018-09-13T21:26:36.231Z,29.23
2018-09-13T21:29:08.762Z,31.43
2018-09-13T21:31:41.878Z,40.13
2018-09-13T21:34:14.471Z,41.27
2018-09-13T21:36:47.077Z,45.63
2018-09-13T21:39:21.729Z,47.67
2018-09-13T21:41:55.021Z,38.45
2018-09-13T21:44:28.999Z,32.13
2018-09-13T21:47:04.808Z,27.30
2018-09-13T21:49:43.316Z,24.80
2018-09-13T21:52:16.713Z,25.23
2018-09-13T21:54:52.169Z,28.73
2018-09-13T21:57:25.637Z,23.33
2018-09-13T21:59:58.311Z,26.83
2018-09-13T22:02:33.447Z,27.17
2018-09-13T22:05:07.431Z,23.17
2018-09-13T22:07:40.134Z,28.30
2018-09-13T22:10:13.347Z,28.63
2018-09-13T22:12:46.032Z,33.63
2018-09-13T22:15:19.516Z,30.83
2018-09-13T22:17:52.390Z,30.17
2018-09-13T22:20:25.139Z,29.30
2018-09-13T22:22:57.724Z,28.65
2018-09-13T22:25:31.597Z,25.63
2018-09-13T22:28:04.262Z,35.03
2018-09-13T22:30:37.917Z,32.37
2018-09-13T22:33:18.783Z,37.97
2018-09-13T22:35:52.908Z,32.93
2018-09-13T22:38:25.512Z,45.90
2018-09-13T22:41:00.180Z,38.77
2018-09-13T22:43:40.645Z,35.90
2018-09-13T22:46:14.028Z,31.50
2018-09-13T22:48:47.679Z,30.97
2018-09-13T22:51:21.640Z,41.03
2018-09-13T22:53:55.007Z,71.12
2018-09-13T22:56:29.117Z,48.40
2018-09-13T22:59:02.556Z,45.07
2018-09-13T23:01:35.942Z,30.43
2018-09-13T23:04:16.430Z,39.63
2018-09-13T23:06:54.661Z,54.50
2018-09-13T23:13:53.227Z,40.77
2018-09-13T23:16:26.232Z,50.47
2018-09-13T23:19:01.028Z,42.37
2018-09-13T23:21:33.815Z,41.63
2018-09-13T23:24:06.389Z,40.43
2018-09-13T23:26:40.352Z,43.33
2018-09-13T23:29:13.071Z,44.10
2018-09-13T23:31:45.820Z,45.50
2018-09-13T23:34:18.768Z,40.90
2018-09-13T23:36:51.313Z,45.50
2018-09-13T23:39:24.813Z,45.30
2018-09-13T23:41:57.671Z,39.07
2018-09-13T23:44:31.093Z,35.70
2018-09-13T23:47:03.707Z,27.37
2018-09-13T23:49:36.724Z,41.00
2018-09-13T23:52:11.147Z,56.00
2018-09-13T23:54:44.500Z,50.53
2018-09-13T23:57:20.173Z,61.93
2018-09-13T23:59:53.480Z,58.77
